createdAt,value
2023-04-25T00:23:48.988Z,12.11
2023-04-25T00:26:51.882Z,12.19
2023-04-25T00:29:54.319Z,12.13
2023-04-25T00:35:59.625Z,12.19
2023-04-25T00:39:01.976Z,12.45
2023-04-25T00:42:04.764Z,12.27
2023-04-25T00:45:08.686Z,12.24
2023-04-25T00:48:11.357Z,12.31
2023-04-25T00:51:17.690Z,12.19
2023-04-25T00:54:20.394Z,12.21
2023-04-25T00:57:23.141Z,12.07
2023-04-25T01:00:25.582Z,12.17
2023-04-25T01:03:29.856Z,12.24
2023-04-25T01:06:33.017Z,12.10
2023-04-25T01:09:36.614Z,12.13
2023-04-25T01:12:39.085Z,12.25
2023-04-25T01:15:41.569Z,12.14
2023-04-25T01:18:45.552Z,12.03
2023-04-25T01:21:48.179Z,12.23
2023-04-25T01:24:51.675Z,12.10
2023-04-25T01:27:54.331Z,11.90
2023-04-25T01:30:58.314Z,11.76
2023-04-25T01:34:01.846Z,11.70
2023-04-25T01:37:05.169Z,11.71
2023-04-25T01:40:09.284Z,11.64
2023-04-25T01:43:13.128Z,11.74
2023-04-25T01:46:16.339Z,11.70
2023-04-25T01:49:19.958Z,11.63
2023-04-25T01:52:22.752Z,11.81
2023-04-25T01:55:25.604Z,11.85
2023-04-25T01:58:35.213Z,11.94
2023-04-25T02:02:04.624Z,11.85
2023-04-25T02:05:08.788Z,11.85
2023-04-25T02:08:14.477Z,11.75
2023-04-25T02:11:16.928Z,11.69
2023-04-25T02:14:26.589Z,11.81
2023-04-25T02:17:48.153Z,11.92
2023-04-25T02:20:50.716Z,11.84
2023-04-25T02:23:53.711Z,11.96
2023-04-25T02:26:59.211Z,11.91
2023-04-25T02:30:02.245Z,11.92
2023-04-25T02:33:04.750Z,11.87
2023-04-25T02:36:07.801Z,11.93
2023-04-25T02:39:11.326Z,11.90
2023-04-25T02:42:13.833Z,11.86
2023-04-25T02:45:16.338Z,12.07
2023-04-25T02:48:18.807Z,11.93
2023-04-25T02:51:21.357Z,11.96
2023-04-25T02:54:24.077Z,12.10
2023-04-25T02:57:26.576Z,12.10
2023-04-25T03:00:29.598Z,12.04
2023-04-25T03:03:32.453Z,12.03
2023-04-25T03:06:34.906Z,11.95
2023-04-25T03:09:37.545Z,11.92
2023-04-25T03:12:40.168Z,12.00
2023-04-25T03:15:42.588Z,12.13
2023-04-25T03:18:45.034Z,12.07
2023-04-25T03:21:47.826Z,12.07
2023-04-25T03:24:51.127Z,11.91
2023-04-25T03:27:53.499Z,12.03
2023-04-25T03:30:56.089Z,11.91
2023-04-25T03:33:58.681Z,11.87
2023-04-25T03:37:01.627Z,11.90
2023-04-25T03:40:07.688Z,12.01
2023-04-25T03:43:40.462Z,11.97
2023-04-25T03:46:47.062Z,12.03
2023-04-25T03:49:52.764Z,12.20
2023-04-25T03:52:57.905Z,12.23
2023-04-25T03:56:03.356Z,11.94
2023-04-25T03:59:09.015Z,12.19
2023-04-25T04:02:11.907Z,12.33
2023-04-25T04:05:15.628Z,12.37
2023-04-25T04:08:24.711Z,12.38
2023-04-25T04:11:27.352Z,12.37
2023-04-25T04:14:29.761Z,12.39
2023-04-25T04:17:32.779Z,12.19
2023-04-25T04:20:35.472Z,12.43
2023-04-25T04:23:39.646Z,12.39
2023-04-25T04:26:46.052Z,12.49
2023-04-25T04:30:06.026Z,12.30
2023-04-25T04:33:16.241Z,12.28
2023-04-25T04:36:30.797Z,12.13
2023-04-25T04:39:35.091Z,12.40
2023-04-25T04:42:51.422Z,12.31
2023-04-25T04:46:04.521Z,12.33
2023-04-25T04:49:27.416Z,12.33
2023-04-25T04:52:52.674Z,12.21
2023-04-25T04:56:13.462Z,12.06
2023-04-25T04:59:27.034Z,12.22
2023-04-25T05:03:02.225Z,12.12
2023-04-25T05:06:32.204Z,12.29
2023-04-25T05:10:14.184Z,12.10
2023-04-25T05:13:39.687Z,12.24
2023-04-25T05:16:55.223Z,12.22
2023-04-25T05:20:20.717Z,12.10
2023-04-25T05:23:41.502Z,12.25
2023-04-25T05:27:09.851Z,12.19
2023-04-25T05:30:36.428Z,12.28
2023-04-25T05:34:05.194Z,12.11
2023-04-25T05:37:25.564Z,12.25
2023-04-25T05:40:41.847Z,12.48
2023-04-25T05:43:54.116Z,12.40
2023-04-25T05:47:06.037Z,12.28
2023-04-25T05:50:27.631Z,12.55
2023-04-25T05:53:49.235Z,12.24
2023-04-25T05:56:51.880Z,12.20
2023-04-25T05:59:55.116Z,12.50
2023-04-25T06:02:59.170Z,12.50
2023-04-25T06:06:01.890Z,12.71
2023-04-25T06:09:04.497Z,12.63
2023-04-25T06:12:08.204Z,12.56
2023-04-25T06:15:24.503Z,12.51
2023-04-25T06:18:30.881Z,12.79
2023-04-25T06:21:33.402Z,12.73
2023-04-25T06:24:36.434Z,12.84
2023-04-25T06:27:40.328Z,12.73
2023-04-25T06:30:44.070Z,12.77
2023-04-25T06:33:50.322Z,12.68
2023-04-25T06:36:52.979Z,12.74
2023-04-25T06:39:56.867Z,12.63
2023-04-25T06:42:59.352Z,12.69
2023-04-25T06:46:13.436Z,12.82
2023-04-25T06:49:20.354Z,12.66
2023-04-25T06:52:22.992Z,12.86
2023-04-25T06:55:28.393Z,12.76
2023-04-25T06:58:44.251Z,13.04
2023-04-25T07:01:51.748Z,13.03
2023-04-25T07:05:00.841Z,13.15
2023-04-25T07:08:04.079Z,13.13
2023-04-25T07:11:06.681Z,12.81
2023-04-25T07:14:09.146Z,13.03
2023-04-25T07:17:11.766Z,12.98
2023-04-25T07:20:15.589Z,12.53
2023-04-25T07:23:18.255Z,12.02
2023-04-25T07:26:21.013Z,11.97
2023-04-25T07:29:49.345Z,11.62
2023-04-25T07:32:51.841Z,11.63
2023-04-25T07:35:54.421Z,11.40
2023-04-25T07:38:56.878Z,11.45
2023-04-25T07:41:59.620Z,11.64
2023-04-25T07:45:05.666Z,11.83
2023-04-25T07:48:08.963Z,11.79
2023-04-25T07:51:14.229Z,11.81
2023-04-25T07:54:17.013Z,11.98
2023-04-25T07:57:25.365Z,11.78
2023-04-25T08:00:29.979Z,11.63
2023-04-25T08:03:52.502Z,11.72
2023-04-25T08:07:03.531Z,11.70
2023-04-25T08:10:12.217Z,11.60
2023-04-25T08:13:15.459Z,11.42
2023-04-25T08:16:17.925Z,11.40
2023-04-25T08:19:20.602Z,11.36
2023-04-25T08:22:23.823Z,11.20
2023-04-25T08:25:31.347Z,11.22
2023-04-25T08:28:34.097Z,11.25
2023-04-25T08:31:38.317Z,11.30
2023-04-25T08:34:43.240Z,11.35
2023-04-25T08:37:45.796Z,11.14
2023-04-25T08:40:54.473Z,11.12
2023-04-25T08:44:01.285Z,10.90
2023-04-25T08:47:05.324Z,11.14
2023-04-25T08:50:11.246Z,11.08
2023-04-25T08:53:19.847Z,10.91
2023-04-25T08:56:24.301Z,10.89
2023-04-25T08:59:27.159Z,11.02
2023-04-25T09:02:30.781Z,10.95
2023-04-25T09:05:34.432Z,10.86
2023-04-25T09:08:38.560Z,10.73
2023-04-25T09:11:44.171Z,10.80
2023-04-25T09:15:10.860Z,10.96
2023-04-25T09:18:33.108Z,10.65
2023-04-25T09:21:36.617Z,10.82
2023-04-25T09:24:41.685Z,10.75
2023-04-25T09:27:54.419Z,10.83
2023-04-25T09:31:05.455Z,10.61
2023-04-25T09:34:19.089Z,10.62
2023-04-25T09:37:31.004Z,10.40
2023-04-25T09:41:05.775Z,10.49
2023-04-25T09:44:15.237Z,10.50
2023-04-25T09:47:19.361Z,10.44
2023-04-25T09:50:25.614Z,10.40
2023-04-25T09:53:47.734Z,10.50
2023-04-25T09:57:14.560Z,10.54
2023-04-25T10:00:18.440Z,10.51
2023-04-25T10:03:23.948Z,10.50
2023-04-25T10:06:50.550Z,10.54
2023-04-25T10:31:48.547Z,10.96
2023-04-25T10:34:51.410Z,10.98
2023-04-25T10:37:59.702Z,11.05
2023-04-25T10:41:09.973Z,11.09
2023-04-25T10:44:12.511Z,10.98
2023-04-25T10:47:44.213Z,10.97
2023-04-25T10:50:46.665Z,10.95
2023-04-25T10:53:58.439Z,10.92
2023-04-25T10:57:01.287Z,11.08
2023-04-25T11:00:18.025Z,11.09
2023-04-25T11:03:23.331Z,10.83
2023-04-25T11:07:05.534Z,11.35
2023-04-25T11:10:09.300Z,11.20
2023-04-25T11:13:13.181Z,11.29
2023-04-25T11:16:26.806Z,10.90
2023-04-25T11:19:30.520Z,11.20
2023-04-25T11:22:32.961Z,11.19
2023-04-25T11:25:37.800Z,11.08
2023-04-25T11:28:41.329Z,11.15
2023-04-25T11:31:46.868Z,10.81
2023-04-25T11:34:49.613Z,10.63
2023-04-25T11:37:52.288Z,10.73
2023-04-25T11:40:55.192Z,10.80
2023-04-25T11:43:57.891Z,10.82
2023-04-25T11:47:00.526Z,11.10
2023-04-25T11:50:04.761Z,11.03
2023-04-25T11:53:08.777Z,11.11
2023-04-25T11:56:15.139Z,10.97
2023-04-25T11:59:17.805Z,11.00
2023-04-25T12:02:27.818Z,10.64
2023-04-25T12:05:33.984Z,10.64
2023-04-25T12:08:37.167Z,10.83
2023-04-25T12:11:46.966Z,10.63
2023-04-25T12:14:50.070Z,10.59
2023-04-25T12:17:55.008Z,10.83
2023-04-25T12:20:57.671Z,10.64
2023-04-25T12:24:20.329Z,10.81
2023-04-25T12:27:22.751Z,10.68
2023-04-25T12:30:25.911Z,10.69
2023-04-25T12:33:33.459Z,10.61
2023-04-25T12:36:36.191Z,10.72
2023-04-25T12:39:38.819Z,10.64
2023-04-25T12:42:41.232Z,10.83
2023-04-25T12:45:43.663Z,10.68
2023-04-25T12:48:46.443Z,10.96
2023-04-25T12:51:49.082Z,10.94
2023-04-25T12:54:51.498Z,11.14
2023-04-25T12:57:53.984Z,11.13
2023-04-25T13:00:56.505Z,11.25
2023-04-25T13:03:59.014Z,11.32
2023-04-25T13:07:01.612Z,10.91
2023-04-25T13:10:04.265Z,11.12
2023-04-25T13:13:06.704Z,11.17
2023-04-25T13:16:09.809Z,10.90
2023-04-25T13:19:12.669Z,11.14
2023-04-25T13:22:16.453Z,10.86
2023-04-25T13:25:18.892Z,10.48
2023-04-25T13:28:21.363Z,11.00
2023-04-25T13:31:23.864Z,10.79
2023-04-25T13:34:26.344Z,10.86
2023-04-25T13:37:28.973Z,10.81
2023-04-25T13:40:31.601Z,10.91
2023-04-25T13:43:34.932Z,10.82
2023-04-25T13:49:44.086Z,10.84
2023-04-25T13:52:46.680Z,11.01
2023-04-25T13:55:49.151Z,11.16
2023-04-25T13:58:52.871Z,10.79
2023-04-25T14:01:56.034Z,11.09
2023-04-25T14:04:58.725Z,11.10
2023-04-25T14:08:02.372Z,11.38
2023-04-25T14:11:04.976Z,11.48
2023-04-25T14:14:07.608Z,11.54
2023-04-25T14:17:10.358Z,11.35
2023-04-25T14:20:12.759Z,11.50
2023-04-25T14:23:15.456Z,11.42
2023-04-25T14:26:17.848Z,11.37
2023-04-25T14:29:20.295Z,11.34
2023-04-25T14:32:22.928Z,11.34
2023-04-25T14:35:25.510Z,11.32
2023-04-25T14:38:28.073Z,11.35
2023-04-25T14:41:30.473Z,11.29
2023-04-25T14:44:32.997Z,11.33
2023-04-25T14:47:38.766Z,11.11
2023-04-25T14:50:41.333Z,11.33
2023-04-25T14:53:43.770Z,11.09
2023-04-25T14:56:46.161Z,10.98
2023-04-25T14:59:48.748Z,11.25
2023-04-25T15:02:51.898Z,11.12
2023-04-25T15:05:57.933Z,11.07
2023-04-25T15:09:00.914Z,11.12
2023-04-25T15:12:03.706Z,10.75
2023-04-25T15:15:07.401Z,10.78
2023-04-25T15:18:10.025Z,10.63
2023-04-25T15:21:12.828Z,10.63
2023-04-25T15:24:16.443Z,10.56
2023-04-25T15:27:19.152Z,10.54
2023-04-25T15:30:26.201Z,10.35
2023-04-25T15:33:29.008Z,10.59
2023-04-25T15:36:32.548Z,10.44
2023-04-25T15:39:35.035Z,10.69
2023-04-25T15:42:55.113Z,10.54
2023-04-25T15:45:57.541Z,10.37
2023-04-25T15:48:59.944Z,10.45
2023-04-25T15:52:02.575Z,10.65
2023-04-25T15:55:06.487Z,10.33
2023-04-25T15:58:10.742Z,10.27
2023-04-25T16:01:15.796Z,10.44
2023-04-25T16:04:18.559Z,10.00
2023-04-25T16:07:21.037Z,10.25
2023-04-25T16:10:25.358Z,10.25
2023-04-25T16:13:27.808Z,10.11
2023-04-25T16:16:30.473Z,10.14
2023-04-25T16:19:32.879Z,10.00
2023-04-25T16:22:39.161Z,9.95
2023-04-25T16:25:43.041Z,10.17
2023-04-25T16:28:45.541Z,9.73
2023-04-25T16:31:48.687Z,10.01
2023-04-25T16:34:51.388Z,9.86
2023-04-25T16:37:53.864Z,9.85
2023-04-25T16:40:59.777Z,9.68
2023-04-25T16:44:02.158Z,9.74
2023-04-25T16:47:06.160Z,9.68
2023-04-25T16:50:09.200Z,9.72
2023-04-25T16:53:11.974Z,9.55
2023-04-25T16:56:14.454Z,9.56
2023-04-25T16:59:17.188Z,9.61
2023-04-25T17:02:19.757Z,9.42
2023-04-25T17:05:22.517Z,9.37
2023-04-25T17:08:25.034Z,9.39
2023-04-25T17:11:28.831Z,9.44
2023-04-25T17:14:33.269Z,9.24
2023-04-25T17:17:35.782Z,9.19
2023-04-25T17:20:39.072Z,9.37
2023-04-25T17:23:45.547Z,9.15
2023-04-25T17:26:49.032Z,9.30
2023-04-25T17:29:51.933Z,9.07
2023-04-25T17:32:54.387Z,9.11
2023-04-25T17:35:56.810Z,9.02
2023-04-25T17:38:59.226Z,8.95
2023-04-25T17:42:02.410Z,8.95
2023-04-25T17:45:06.069Z,8.61
2023-04-25T17:48:08.711Z,8.83
2023-04-25T17:51:11.500Z,8.71
2023-04-25T17:54:14.717Z,8.71
2023-04-25T17:57:17.985Z,8.48
2023-04-25T18:00:20.491Z,8.78
2023-04-25T18:03:23.296Z,8.66
2023-04-25T18:06:28.309Z,8.69
2023-04-25T18:09:32.350Z,8.77
2023-04-25T18:12:35.053Z,8.76
2023-04-25T18:15:37.457Z,8.80
2023-04-25T18:18:43.140Z,8.72
2023-04-25T18:21:45.976Z,8.73
2023-04-25T18:24:50.969Z,8.70
2023-04-25T18:27:53.528Z,8.57
2023-04-25T18:30:56.789Z,8.71
2023-04-25T18:33:59.603Z,8.65
2023-04-25T18:37:02.373Z,8.58
2023-04-25T18:40:07.195Z,8.53
2023-04-25T18:43:09.949Z,8.35
2023-04-25T18:46:13.674Z,8.28
2023-04-25T18:49:16.393Z,8.43
2023-04-25T18:52:19.689Z,8.30
2023-04-25T18:55:22.324Z,8.37
2023-04-25T18:58:25.273Z,8.23
2023-04-25T19:01:28.115Z,8.40
2023-04-25T19:04:31.048Z,8.38
2023-04-25T19:07:33.795Z,8.36
2023-04-25T19:10:39.116Z,8.17
2023-04-25T19:13:41.906Z,8.32
2023-04-25T19:16:44.832Z,8.12
2023-04-25T19:19:47.808Z,8.25
2023-04-25T19:22:51.754Z,8.09
2023-04-25T19:25:54.398Z,8.04
2023-04-25T19:29:07.195Z,8.09
2023-04-25T19:32:10.051Z,8.22
2023-04-25T19:35:13.477Z,8.33
2023-04-25T19:38:16.586Z,8.08
2023-04-25T19:41:19.399Z,8.05
2023-04-25T19:44:22.233Z,8.12
2023-04-25T19:47:27.656Z,8.10
2023-04-25T19:50:30.917Z,8.25
2023-04-25T19:53:33.654Z,8.12
2023-04-25T19:56:36.392Z,8.16
2023-04-25T19:59:39.299Z,7.91
2023-04-25T20:02:45.279Z,7.99
2023-04-25T20:05:48.787Z,8.12
2023-04-25T20:08:55.235Z,7.87
2023-04-25T20:11:57.745Z,7.92
2023-04-25T20:15:00.866Z,7.65
2023-04-25T20:18:04.580Z,7.56
2023-04-25T20:21:08.535Z,7.34
2023-04-25T20:24:11.963Z,7.22
2023-04-25T20:27:14.382Z,7.29
2023-04-25T20:30:16.871Z,7.38
2023-04-25T20:33:19.297Z,7.69
2023-04-25T20:36:21.986Z,7.46
2023-04-25T20:39:25.031Z,7.54
2023-04-25T20:42:27.687Z,7.14
2023-04-25T20:45:32.226Z,7.28
2023-04-25T20:48:35.718Z,7.08
2023-04-25T20:51:38.397Z,7.22
2023-04-25T20:54:41.613Z,6.87
2023-04-25T20:57:43.995Z,6.88
2023-04-25T21:00:47.726Z,6.78
2023-04-25T21:03:53.172Z,6.89
2023-04-25T21:06:55.740Z,6.95
2023-04-25T21:09:58.237Z,6.69
2023-04-25T21:13:00.846Z,6.59
2023-04-25T21:16:03.723Z,6.83
2023-04-25T21:19:06.823Z,6.78
2023-04-25T21:22:09.287Z,6.60
2023-04-25T21:25:11.718Z,6.70
2023-04-25T21:28:14.191Z,6.65
2023-04-25T21:31:16.716Z,6.61
2023-04-25T21:34:19.253Z,6.55
2023-04-25T21:37:21.725Z,6.64
2023-04-25T21:40:24.946Z,6.78
2023-04-25T21:43:27.289Z,6.73
2023-04-25T21:46:29.759Z,6.86
2023-04-25T21:49:33.119Z,6.87
2023-04-25T21:52:36.150Z,6.88
2023-04-25T21:55:38.697Z,6.62
2023-04-25T21:58:41.107Z,6.78
2023-04-25T22:01:45.436Z,6.64
2023-04-25T22:04:48.410Z,6.61
2023-04-25T22:07:51.938Z,6.60
2023-04-25T22:10:55.294Z,6.48
2023-04-25T22:13:57.921Z,6.59
2023-04-25T22:17:01.268Z,6.77
2023-04-25T22:20:09.754Z,6.61
2023-04-25T22:23:13.779Z,6.61
2023-04-25T22:26:16.210Z,6.54
2023-04-25T22:29:18.748Z,6.53
2023-04-25T22:32:21.163Z,6.69
2023-04-25T22:35:23.906Z,6.46
2023-04-25T22:38:26.532Z,6.58
2023-04-25T22:41:29.016Z,6.57
2023-04-25T22:44:31.518Z,6.46
2023-04-25T22:47:37.796Z,6.22
2023-04-25T22:50:40.871Z,6.33
2023-04-25T22:53:45.275Z,6.53
2023-04-25T22:56:47.692Z,6.32
2023-04-25T22:59:54.205Z,6.43
2023-04-25T23:02:57.138Z,6.47
2023-04-25T23:06:00.279Z,6.48
2023-04-25T23:09:02.977Z,6.18
2023-04-25T23:12:05.834Z,6.29
2023-04-25T23:15:09.390Z,6.46
2023-04-25T23:18:11.906Z,6.40
2023-04-25T23:21:14.523Z,6.28
2023-04-25T23:24:16.915Z,6.41
2023-04-25T23:27:19.241Z,6.25
2023-04-25T23:30:21.869Z,6.25
2023-04-25T23:33:24.298Z,6.47
2023-04-25T23:36:28.106Z,6.25
2023-04-25T23:39:30.962Z,6.37
2023-04-25T23:42:33.531Z,6.15
2023-04-25T23:45:36.464Z,6.30
2023-04-25T23:48:38.881Z,6.33
2023-04-25T23:51:41.394Z,6.15
2023-04-25T23:54:43.746Z,5.98
2023-04-25T23:57:46.292Z,6.30
